Time;durP1;ratioP1;P1;durP2;ratioP2;P2;SDS_P1;SDS_P2;PMS_P1;PMS_P2;Temp;Humidity;BMP_temperature;BMP_pressure;BME280_temperature;BME280_humidity;BME280_pressure;Samples;Min_cycle;Max_cycle;Signal;HPM_P1;HPM_P2
2023/02/04 00:06:50;;;;;;;7.73;3.50;;;;;;;1.76;100.00;99562.53;31303342;28;20045;-76
2023/02/04 00:21:52;;;;;;;6.77;3.47;;;;;;;1.76;100.00;99548.38;31297107;28;20056;-78
2023/02/04 00:36:54;;;;;;;9.00;5.03;;;;;;;1.81;100.00;99537.34;31314213;28;20045;-78
2023/02/04 00:51:57;;;;;;;11.17;5.47;;;;;;;1.85;100.00;99522.84;31288787;28;20538;-77
2023/02/04 01:06:58;;;;;;;16.53;6.23;;;;;;;1.96;100.00;99506.84;31320970;28;20079;-77
2023/02/04 01:22:00;;;;;;;25.20;6.93;;;;;;;2.09;100.00;99497.34;31364476;28;20068;-79
2023/02/04 01:37:02;;;;;;;19.47;7.73;;;;;;;2.13;100.00;99490.09;31316106;28;20045;-77
2023/02/04 01:52:05;;;;;;;30.13;8.77;;;;;;;2.36;100.00;99490.56;31318582;28;20057;-77
2023/02/04 02:07:08;;;;;;;42.67;10.03;;;;;;;2.10;100.00;99496.22;31279322;28;20060;-77
2023/02/04 02:22:19;;;;;;;35.07;10.53;;;;;;;1.98;100.00;99472.44;31291303;28;20045;-81
2023/02/04 02:37:21;;;;;;;35.20;8.60;;;;;;;2.32;100.00;99449.63;31316700;28;20493;-80
2023/02/04 02:52:23;;;;;;;27.77;9.00;;;;;;;2.79;100.00;99482.66;31288401;28;20046;-81
2023/02/04 03:07:25;;;;;;;20.10;8.70;;;;;;;2.87;100.00;99526.31;31304237;28;20106;-82
2023/02/04 03:22:28;;;;;;;6.90;3.87;;;;;;;3.03;100.00;99546.28;31287549;28;20057;-79
2023/02/04 03:37:29;;;;;;;5.47;3.27;;;;;;;2.95;100.00;99576.91;31306274;28;20056;-79
2023/02/04 03:52:32;;;;;;;6.60;3.67;;;;;;;2.58;100.00;99621.97;31319817;28;20053;-78
2023/02/04 04:07:34;;;;;;;5.93;3.97;;;;;;;2.49;100.00;99640.28;31287270;28;20100;-78
2023/02/04 04:22:36;;;;;;;7.63;3.97;;;;;;;2.26;100.00;99649.31;31310022;28;20483;-77
2023/02/04 04:37:37;;;;;;;7.87;4.73;;;;;;;2.25;100.00;99653.13;31324998;28;20098;-78
2023/02/04 04:52:40;;;;;;;8.03;4.77;;;;;;;2.01;100.00;99675.16;31316210;28;20083;-76
2023/02/04 05:07:42;;;;;;;10.50;5.87;;;;;;;1.95;100.00;99692.69;31325319;28;20041;-77
2023/02/04 05:22:43;;;;;;;22.33;9.80;;;;;;;2.00;100.00;99711.09;31289352;28;20045;-76
2023/02/04 05:37:45;;;;;;;18.17;7.90;;;;;;;2.33;100.00;99734.31;31328785;28;20045;-77
2023/02/04 05:52:48;;;;;;;18.17;8.60;;;;;;;2.51;100.00;99753.19;31345211;28;20045;-77
2023/02/04 06:07:49;;;;;;;24.17;9.23;;;;;;;2.42;100.00;99780.31;31308712;28;20103;-78
2023/02/04 06:22:53;;;;;;;22.27;10.20;;;;;;;2.54;100.00;99793.44;31267091;28;20550;-80
2023/02/04 06:37:55;;;;;;;23.13;9.33;;;;;;;2.77;100.00;99811.97;31294563;28;20497;-79
2023/02/04 06:52:57;;;;;;;21.20;9.40;;;;;;;2.80;100.00;99821.19;31315676;28;20135;-79
2023/02/04 07:07:59;;;;;;;25.73;9.67;;;;;;;2.99;100.00;99851.19;31280027;28;20048;-82
2023/02/04 07:23:01;;;;;;;23.60;10.10;;;;;;;3.11;100.00;99860.84;31345233;28;20053;-79
2023/02/04 07:38:04;;;;;;;26.37;10.17;;;;;;;3.93;100.00;99880.03;31335827;28;20045;-79
2023/02/04 07:53:07;;;;;;;22.40;9.33;;;;;;;4.11;100.00;99905.81;31358976;28;20048;-80
2023/02/04 08:08:09;;;;;;;23.23;10.43;;;;;;;4.92;100.00;99923.25;31330097;28;20103;-77
2023/02/04 08:23:11;;;;;;;20.47;9.30;;;;;;;6.13;100.00;99950.00;31279886;28;20485;-78
2023/02/04 08:38:13;;;;;;;18.30;8.60;;;;;;;7.27;100.00;99954.66;31321477;28;20481;-77
2023/02/04 08:53:17;;;;;;;19.63;9.80;;;;;;;8.56;100.00;99955.53;31327414;28;20063;-80
2023/02/04 09:08:19;;;;;;;18.67;9.50;;;;;;;8.32;100.00;99952.00;31323034;28;20060;-78
2023/02/04 09:23:22;;;;;;;23.10;9.47;;;;;;;7.48;100.00;99959.88;31328375;28;20061;-76
2023/02/04 09:38:24;;;;;;;21.23;8.37;;;;;;;6.75;100.00;99957.34;31329802;28;20132;-76
2023/02/04 09:53:29;;;;;;;14.90;7.00;;;;;;;9.88;100.00;99927.03;31379404;28;20060;-79
2023/02/04 10:08:32;;;;;;;14.27;6.77;;;;;;;10.57;100.00;99939.56;31312220;28;20084;-78
2023/02/04 10:23:37;;;;;;;9.87;6.60;;;;;;;11.08;100.00;99934.50;31334901;28;20418;-81
2023/02/04 10:38:39;;;;;;;11.23;6.33;;;;;;;9.65;100.00;99954.22;31344334;28;20057;-79
2023/02/04 11:09:04;;;;;;;8.97;5.47;;;;;;;6.97;100.00;99991.13;31359748;28;20096;-79
2023/02/04 11:24:18;;;;;;;13.50;5.77;;;;;;;6.12;100.00;100002.34;31275598;28;20064;-79
2023/02/04 11:39:28;;;;;;;7.40;5.23;;;;;;;5.63;100.00;100009.34;31330870;28;20115;-80
2023/02/04 11:54:30;;;;;;;9.43;5.47;;;;;;;5.05;100.00;100029.31;31289552;28;20535;-78
2023/02/04 12:09:32;;;;;;;9.97;5.20;;;;;;;4.84;100.00;100021.22;31283875;28;20052;-77
2023/02/04 12:24:34;;;;;;;8.20;5.57;;;;;;;4.10;100.00;100051.25;31347022;28;20088;-79
2023/02/04 12:39:36;;;;;;;8.17;5.50;;;;;;;3.72;100.00;100047.97;31264124;28;20147;-75
2023/02/04 12:54:38;;;;;;;7.27;5.23;;;;;;;3.78;100.00;100051.81;31248901;28;20103;-77
2023/02/04 13:09:40;;;;;;;6.53;4.30;;;;;;;3.49;100.00;100068.88;31288179;28;20065;-77
2023/02/04 13:24:42;;;;;;;12.83;5.33;;;;;;;3.51;100.00;100079.25;31315178;28;20056;-81
2023/02/04 13:39:44;;;;;;;8.53;5.07;;;;;;;3.34;100.00;100091.34;31333140;28;20068;-76
2023/02/04 13:54:46;;;;;;;8.80;4.70;;;;;;;3.09;100.00;100093.78;31318112;28;20060;-75
2023/02/04 14:09:49;;;;;;;8.53;5.50;;;;;;;2.80;100.00;100090.03;31333758;28;20436;-75
2023/02/04 14:24:51;;;;;;;11.53;5.90;;;;;;;2.77;100.00;100085.41;31341176;28;20057;-83
2023/02/04 14:39:54;;;;;;;9.97;6.13;;;;;;;2.30;100.00;100105.50;31348800;28;20113;-81
2023/02/04 14:54:58;;;;;;;10.33;7.17;;;;;;;2.28;100.00;100123.06;31381219;28;20057;-76
2023/02/04 15:10:00;;;;;;;18.07;8.40;;;;;;;2.06;100.00;100121.97;31327260;28;20111;-76
2023/02/04 15:25:02;;;;;;;21.53;10.93;;;;;;;1.97;100.00;100146.31;31330981;28;20049;-75
2023/02/04 15:40:04;;;;;;;17.87;9.47;;;;;;;2.13;100.00;100162.22;31345672;28;20153;-76
2023/02/04 15:55:07;;;;;;;13.27;7.77;;;;;;;2.07;100.00;100169.03;31362519;28;20056;-77
2023/02/04 16:10:09;;;;;;;15.00;7.20;;;;;;;2.17;100.00;100181.03;31355008;28;20041;-76
2023/02/04 16:25:11;;;;;;;14.27;7.67;;;;;;;2.11;100.00;100193.97;31391375;28;20048;-76
2023/02/04 16:40:13;;;;;;;14.93;8.40;;;;;;;1.96;100.00;100189.50;31374418;28;20504;-75
2023/02/04 16:55:15;;;;;;;17.53;7.50;;;;;;;1.63;100.00;100200.81;31313211;28;20451;-75
2023/02/04 17:11:27;;;;;;;13.70;8.33;;;;;;;1.53;100.00;100212.84;31313093;28;20053;-74
2023/02/04 17:25:39;;;;;;;20.90;9.30;;;;;;;1.48;100.00;100220.38;31327933;28;20049;-74
2023/02/04 17:40:41;;;;;;;15.50;8.30;;;;;;;1.54;100.00;100225.13;31326761;28;20102;-76
2023/02/04 17:55:43;;;;;;;16.50;9.13;;;;;;;1.48;100.00;100215.81;31338187;28;20045;-77
2023/02/04 18:10:50;;;;;;;12.10;6.30;;;;;;;1.65;100.00;100231.41;31322381;28;20057;-75
2023/02/04 18:25:54;;;;;;;11.90;7.37;;;;;;;1.59;100.00;100240.88;31328338;28;20095;-77
2023/02/04 18:41:07;;;;;;;21.27;9.57;;;;;;;1.43;100.00;100244.75;31318468;28;20045;-75
2023/02/04 18:56:14;;;;;;;17.23;8.87;;;;;;;1.38;100.00;100243.16;31358643;28;20115;-75
2023/02/04 19:11:36;;;;;;;13.63;8.00;;;;;;;1.30;100.00;100249.47;31381585;28;20079;-76
2023/02/04 19:26:52;;;;;;;15.63;8.70;;;;;;;1.21;100.00;100267.63;31331394;28;20044;-74
2023/02/04 19:41:56;;;;;;;17.10;9.83;;;;;;;1.06;100.00;100273.81;31331920;28;20558;-78
2023/02/04 19:56:58;;;;;;;33.23;17.00;;;;;;;1.00;100.00;100275.97;31351367;28;20964;-87
2023/02/04 20:12:05;;;;;;;14.97;8.47;;;;;;;0.93;100.00;100275.84;31347342;28;20569;-75
2023/02/04 20:27:14;;;;;;;19.03;7.83;;;;;;;0.75;100.00;100270.06;31328776;28;20065;-76
2023/02/04 20:42:34;;;;;;;14.27;8.20;;;;;;;0.60;100.00;100273.56;31302617;28;20049;-77
2023/02/04 20:57:36;;;;;;;14.70;8.40;;;;;;;0.33;100.00;100275.97;31289821;28;20061;-80
2023/02/04 21:12:41;;;;;;;14.03;7.67;;;;;;;0.19;100.00;100280.22;31280918;28;20060;-81
2023/02/04 21:27:43;;;;;;;16.83;9.53;;;;;;;0.02;100.00;100273.28;31273489;28;20053;-80
2023/02/04 21:42:45;;;;;;;15.87;8.47;;;;;;;-0.11;100.00;100287.81;31315207;28;20057;-80
2023/02/04 21:57:48;;;;;;;15.50;7.43;;;;;;;-0.07;100.00;100283.38;31257710;28;20132;-82
2023/02/04 22:12:50;;;;;;;14.13;8.47;;;;;;;-0.22;100.00;100292.09;31265128;28;20561;-81
2023/02/04 22:27:52;;;;;;;14.43;8.33;;;;;;;-0.30;100.00;100299.16;31324244;28;20114;-80
2023/02/04 22:42:58;;;;;;;12.10;7.80;;;;;;;-0.36;100.00;100293.28;31283839;28;20491;-81
2023/02/04 22:58:00;;;;;;;;;;;;;;;-0.42;100.00;100283.97;31348887;28;20048;-80
2023/02/04 23:13:02;;;;;;;17.30;9.33;;;;;;;-0.38;100.00;100284.84;31305774;28;19920;-80
2023/02/04 23:28:04;;;;;;;17.63;9.63;;;;;;;-0.35;100.00;100291.38;31322629;28;20049;-80
2023/02/04 23:43:06;;;;;;;28.87;13.07;;;;;;;-0.32;100.00;100293.38;31291797;28;20044;-83
2023/02/04 23:58:11;;;;;;;28.90;16.03;;;;;;;-0.41;100.00;100290.06;31294578;28;20057;-80
